sensor_id;sensor_type;location;lat;lon;timestamp;P1;durP1;ratioP1;P2;durP2;ratioP2
34080;SDS011;20358;50.272;19.026;2022-09-14T00:00:20;4.10;;;3.70;;
34080;SDS011;20358;50.272;19.026;2022-09-14T00:03:26;4.60;;;4.10;;
34080;SDS011;20358;50.272;19.026;2022-09-14T00:06:36;5.87;;;4.07;;
34080;SDS011;20358;50.272;19.026;2022-09-14T00:09:43;4.00;;;3.60;;
34080;SDS011;20358;50.272;19.026;2022-09-14T00:12:51;4.33;;;3.80;;
34080;SDS011;20358;50.272;19.026;2022-09-14T00:16:01;4.97;;;3.83;;
34080;SDS011;20358;50.272;19.026;2022-09-14T00:19:15;4.00;;;3.60;;
34080;SDS011;20358;50.272;19.026;2022-09-14T00:22:25;4.30;;;3.90;;
34080;SDS011;20358;50.272;19.026;2022-09-14T00:25:33;7.30;;;3.90;;
34080;SDS011;20358;50.272;19.026;2022-09-14T00:28:40;4.07;;;3.67;;
34080;SDS011;20358;50.272;19.026;2022-09-14T00:31:49;4.53;;;4.13;;
34080;SDS011;20358;50.272;19.026;2022-09-14T00:34:55;4.67;;;3.90;;
34080;SDS011;20358;50.272;19.026;2022-09-14T00:38:06;4.40;;;4.00;;
34080;SDS011;20358;50.272;19.026;2022-09-14T00:41:13;5.23;;;4.20;;
34080;SDS011;20358;50.272;19.026;2022-09-14T00:48:05;4.60;;;3.57;;
34080;SDS011;20358;50.272;19.026;2022-09-14T00:51:14;4.53;;;4.10;;
34080;SDS011;20358;50.272;19.026;2022-09-14T00:54:26;4.20;;;3.80;;
34080;SDS011;20358;50.272;19.026;2022-09-14T00:57:35;4.67;;;4.27;;
34080;SDS011;20358;50.272;19.026;2022-09-14T01:00:43;5.10;;;4.10;;
34080;SDS011;20358;50.272;19.026;2022-09-14T01:03:50;4.30;;;3.90;;
34080;SDS011;20358;50.272;19.026;2022-09-14T01:06:59;4.20;;;3.80;;
34080;SDS011;20358;50.272;19.026;2022-09-14T01:10:18;5.77;;;4.13;;
34080;SDS011;20358;50.272;19.026;2022-09-14T01:13:36;4.07;;;3.70;;
34080;SDS011;20358;50.272;19.026;2022-09-14T01:16:48;5.17;;;3.90;;
34080;SDS011;20358;50.272;19.026;2022-09-14T01:20:16;4.10;;;3.80;;
34080;SDS011;20358;50.272;19.026;2022-09-14T01:23:29;4.53;;;4.13;;
34080;SDS011;20358;50.272;19.026;2022-09-14T01:30:27;4.17;;;3.77;;
34080;SDS011;20358;50.272;19.026;2022-09-14T01:33:38;4.53;;;4.13;;
34080;SDS011;20358;50.272;19.026;2022-09-14T01:36:50;4.57;;;4.17;;
34080;SDS011;20358;50.272;19.026;2022-09-14T01:40:05;4.80;;;4.00;;
34080;SDS011;20358;50.272;19.026;2022-09-14T01:43:17;3.63;;;3.33;;
34080;SDS011;20358;50.272;19.026;2022-09-14T01:46:32;4.10;;;3.80;;
34080;SDS011;20358;50.272;19.026;2022-09-14T01:49:44;3.80;;;3.47;;
34080;SDS011;20358;50.272;19.026;2022-09-14T01:52:57;5.27;;;3.97;;
34080;SDS011;20358;50.272;19.026;2022-09-14T01:56:11;5.00;;;4.10;;
34080;SDS011;20358;50.272;19.026;2022-09-14T01:59:23;5.13;;;4.00;;
34080;SDS011;20358;50.272;19.026;2022-09-14T02:02:36;4.77;;;3.97;;
34080;SDS011;20358;50.272;19.026;2022-09-14T02:05:47;7.50;;;4.13;;
34080;SDS011;20358;50.272;19.026;2022-09-14T02:08:58;4.00;;;3.67;;
34080;SDS011;20358;50.272;19.026;2022-09-14T02:12:10;4.20;;;3.80;;
34080;SDS011;20358;50.272;19.026;2022-09-14T02:15:16;5.23;;;3.90;;
34080;SDS011;20358;50.272;19.026;2022-09-14T02:18:26;5.10;;;3.67;;
34080;SDS011;20358;50.272;19.026;2022-09-14T02:21:33;3.93;;;3.63;;
34080;SDS011;20358;50.272;19.026;2022-09-14T02:24:40;5.73;;;3.90;;
34080;SDS011;20358;50.272;19.026;2022-09-14T02:27:47;4.53;;;4.13;;
34080;SDS011;20358;50.272;19.026;2022-09-14T02:30:58;4.77;;;3.70;;
34080;SDS011;20358;50.272;19.026;2022-09-14T02:34:18;4.20;;;3.80;;
34080;SDS011;20358;50.272;19.026;2022-09-14T02:37:34;5.07;;;3.70;;
34080;SDS011;20358;50.272;19.026;2022-09-14T02:40:50;6.07;;;4.07;;
34080;SDS011;20358;50.272;19.026;2022-09-14T02:44:06;5.97;;;4.27;;
34080;SDS011;20358;50.272;19.026;2022-09-14T02:47:20;6.00;;;4.33;;
34080;SDS011;20358;50.272;19.026;2022-09-14T02:50:35;5.90;;;4.03;;
34080;SDS011;20358;50.272;19.026;2022-09-14T02:53:50;4.50;;;4.07;;
34080;SDS011;20358;50.272;19.026;2022-09-14T02:57:04;4.80;;;4.40;;
34080;SDS011;20358;50.272;19.026;2022-09-14T03:00:11;4.53;;;4.13;;
34080;SDS011;20358;50.272;19.026;2022-09-14T03:03:19;4.73;;;4.03;;
34080;SDS011;20358;50.272;19.026;2022-09-14T03:06:29;5.30;;;3.93;;
34080;SDS011;20358;50.272;19.026;2022-09-14T03:09:36;4.70;;;4.30;;
34080;SDS011;20358;50.272;19.026;2022-09-14T03:12:42;6.00;;;4.27;;
34080;SDS011;20358;50.272;19.026;2022-09-14T03:15:49;3.97;;;3.57;;
34080;SDS011;20358;50.272;19.026;2022-09-14T03:18:56;4.40;;;3.87;;
34080;SDS011;20358;50.272;19.026;2022-09-14T03:22:08;4.37;;;3.97;;
34080;SDS011;20358;50.272;19.026;2022-09-14T03:25:14;7.93;;;4.30;;
34080;SDS011;20358;50.272;19.026;2022-09-14T03:28:22;4.97;;;4.13;;
34080;SDS011;20358;50.272;19.026;2022-09-14T03:31:28;7.23;;;4.50;;
34080;SDS011;20358;50.272;19.026;2022-09-14T03:34:36;5.23;;;4.10;;
34080;SDS011;20358;50.272;19.026;2022-09-14T03:37:45;4.67;;;4.00;;
34080;SDS011;20358;50.272;19.026;2022-09-14T03:40:52;4.83;;;4.10;;
34080;SDS011;20358;50.272;19.026;2022-09-14T03:43:59;5.33;;;4.33;;
34080;SDS011;20358;50.272;19.026;2022-09-14T03:47:06;6.20;;;3.73;;
34080;SDS011;20358;50.272;19.026;2022-09-14T03:50:13;4.23;;;3.73;;
34080;SDS011;20358;50.272;19.026;2022-09-14T03:53:24;4.20;;;3.80;;
34080;SDS011;20358;50.272;19.026;2022-09-14T03:56:31;5.70;;;4.47;;
34080;SDS011;20358;50.272;19.026;2022-09-14T03:59:38;3.90;;;3.40;;
34080;SDS011;20358;50.272;19.026;2022-09-14T04:02:45;5.27;;;4.10;;
34080;SDS011;20358;50.272;19.026;2022-09-14T04:05:53;5.13;;;3.90;;
34080;SDS011;20358;50.272;19.026;2022-09-14T04:09:02;4.93;;;4.27;;
34080;SDS011;20358;50.272;19.026;2022-09-14T04:12:09;4.33;;;4.03;;
34080;SDS011;20358;50.272;19.026;2022-09-14T04:15:15;5.30;;;4.57;;
34080;SDS011;20358;50.272;19.026;2022-09-14T04:18:23;5.57;;;4.47;;
34080;SDS011;20358;50.272;19.026;2022-09-14T04:21:29;7.13;;;5.20;;
34080;SDS011;20358;50.272;19.026;2022-09-14T04:24:39;6.33;;;4.93;;
34080;SDS011;20358;50.272;19.026;2022-09-14T04:27:46;6.77;;;5.77;;
34080;SDS011;20358;50.272;19.026;2022-09-14T04:31:12;7.10;;;5.50;;
34080;SDS011;20358;50.272;19.026;2022-09-14T04:34:19;5.47;;;4.80;;
34080;SDS011;20358;50.272;19.026;2022-09-14T04:37:29;5.77;;;5.13;;
34080;SDS011;20358;50.272;19.026;2022-09-14T04:40:42;5.60;;;5.10;;
34080;SDS011;20358;50.272;19.026;2022-09-14T04:43:49;5.20;;;4.70;;
34080;SDS011;20358;50.272;19.026;2022-09-14T04:46:56;5.13;;;4.67;;
34080;SDS011;20358;50.272;19.026;2022-09-14T04:50:06;5.97;;;5.27;;
34080;SDS011;20358;50.272;19.026;2022-09-14T04:53:13;6.67;;;5.17;;
34080;SDS011;20358;50.272;19.026;2022-09-14T04:56:22;5.83;;;4.80;;
34080;SDS011;20358;50.272;19.026;2022-09-14T04:59:29;5.63;;;4.57;;
34080;SDS011;20358;50.272;19.026;2022-09-14T05:02:39;5.50;;;5.00;;
34080;SDS011;20358;50.272;19.026;2022-09-14T05:05:46;7.50;;;5.30;;
34080;SDS011;20358;50.272;19.026;2022-09-14T05:08:52;6.20;;;5.60;;
34080;SDS011;20358;50.272;19.026;2022-09-14T05:12:05;6.43;;;5.17;;
34080;SDS011;20358;50.272;19.026;2022-09-14T05:15:12;5.07;;;4.57;;
34080;SDS011;20358;50.272;19.026;2022-09-14T05:18:18;6.00;;;5.43;;
34080;SDS011;20358;50.272;19.026;2022-09-14T05:21:26;6.77;;;6.07;;
34080;SDS011;20358;50.272;19.026;2022-09-14T05:24:33;5.83;;;5.23;;
34080;SDS011;20358;50.272;19.026;2022-09-14T05:27:42;8.00;;;5.43;;
34080;SDS011;20358;50.272;19.026;2022-09-14T05:30:48;6.77;;;5.20;;
34080;SDS011;20358;50.272;19.026;2022-09-14T05:33:56;6.30;;;5.33;;
34080;SDS011;20358;50.272;19.026;2022-09-14T05:37:06;6.40;;;5.80;;
34080;SDS011;20358;50.272;19.026;2022-09-14T05:40:13;6.30;;;5.70;;
34080;SDS011;20358;50.272;19.026;2022-09-14T05:43:22;6.13;;;5.53;;
34080;SDS011;20358;50.272;19.026;2022-09-14T05:46:29;8.37;;;6.77;;
34080;SDS011;20358;50.272;19.026;2022-09-14T05:49:36;6.37;;;5.73;;
34080;SDS011;20358;50.272;19.026;2022-09-14T05:52:43;8.53;;;5.97;;
34080;SDS011;20358;50.272;19.026;2022-09-14T05:55:57;6.67;;;6.03;;
34080;SDS011;20358;50.272;19.026;2022-09-14T05:59:08;9.50;;;6.50;;
34080;SDS011;20358;50.272;19.026;2022-09-14T06:02:15;9.33;;;5.67;;
34080;SDS011;20358;50.272;19.026;2022-09-14T06:05:21;8.33;;;6.10;;
34080;SDS011;20358;50.272;19.026;2022-09-14T06:08:29;7.20;;;6.37;;
34080;SDS011;20358;50.272;19.026;2022-09-14T06:11:38;10.30;;;6.30;;
34080;SDS011;20358;50.272;19.026;2022-09-14T06:14:47;7.13;;;6.43;;
34080;SDS011;20358;50.272;19.026;2022-09-14T06:17:55;11.00;;;6.60;;
34080;SDS011;20358;50.272;19.026;2022-09-14T06:21:05;7.53;;;6.17;;
34080;SDS011;20358;50.272;19.026;2022-09-14T06:24:13;10.37;;;6.40;;
34080;SDS011;20358;50.272;19.026;2022-09-14T06:27:19;6.93;;;5.53;;
34080;SDS011;20358;50.272;19.026;2022-09-14T06:30:29;8.23;;;5.60;;
34080;SDS011;20358;50.272;19.026;2022-09-14T06:33:35;6.23;;;4.93;;
34080;SDS011;20358;50.272;19.026;2022-09-14T06:36:42;8.90;;;5.17;;
34080;SDS011;20358;50.272;19.026;2022-09-14T06:39:49;5.73;;;5.13;;
34080;SDS011;20358;50.272;19.026;2022-09-14T06:42:56;6.43;;;5.17;;
34080;SDS011;20358;50.272;19.026;2022-09-14T06:46:09;9.27;;;5.30;;
34080;SDS011;20358;50.272;19.026;2022-09-14T06:49:17;5.63;;;4.60;;
34080;SDS011;20358;50.272;19.026;2022-09-14T06:52:24;7.63;;;4.83;;
34080;SDS011;20358;50.272;19.026;2022-09-14T06:55:35;5.63;;;5.00;;
34080;SDS011;20358;50.272;19.026;2022-09-14T06:58:42;7.57;;;5.50;;
34080;SDS011;20358;50.272;19.026;2022-09-14T07:01:51;6.57;;;4.93;;
34080;SDS011;20358;50.272;19.026;2022-09-14T07:04:58;6.50;;;4.83;;
34080;SDS011;20358;50.272;19.026;2022-09-14T07:08:06;7.43;;;5.30;;
34080;SDS011;20358;50.272;19.026;2022-09-14T07:11:14;5.30;;;4.80;;
34080;SDS011;20358;50.272;19.026;2022-09-14T07:14:22;5.73;;;5.00;;
34080;SDS011;20358;50.272;19.026;2022-09-14T07:17:36;6.27;;;5.63;;
34080;SDS011;20358;50.272;19.026;2022-09-14T07:20:43;6.53;;;5.87;;
34080;SDS011;20358;50.272;19.026;2022-09-14T07:23:49;6.40;;;5.17;;
34080;SDS011;20358;50.272;19.026;2022-09-14T07:26:56;5.07;;;4.67;;
34080;SDS011;20358;50.272;19.026;2022-09-14T07:30:03;6.97;;;5.30;;
34080;SDS011;20358;50.272;19.026;2022-09-14T07:33:14;7.70;;;5.10;;
34080;SDS011;20358;50.272;19.026;2022-09-14T07:36:20;6.90;;;5.90;;
34080;SDS011;20358;50.272;19.026;2022-09-14T07:39:28;12.43;;;5.87;;
34080;SDS011;20358;50.272;19.026;2022-09-14T07:42:34;9.07;;;6.40;;
34080;SDS011;20358;50.272;19.026;2022-09-14T07:45:40;6.60;;;5.90;;
34080;SDS011;20358;50.272;19.026;2022-09-14T07:48:52;9.00;;;7.00;;
34080;SDS011;20358;50.272;19.026;2022-09-14T07:52:02;9.77;;;6.67;;
34080;SDS011;20358;50.272;19.026;2022-09-14T07:55:08;10.67;;;6.27;;
34080;SDS011;20358;50.272;19.026;2022-09-14T07:58:16;14.03;;;6.33;;
34080;SDS011;20358;50.272;19.026;2022-09-14T08:01:23;14.23;;;6.90;;
34080;SDS011;20358;50.272;19.026;2022-09-14T08:04:35;6.73;;;5.97;;
34080;SDS011;20358;50.272;19.026;2022-09-14T08:07:42;9.70;;;6.53;;
34080;SDS011;20358;50.272;19.026;2022-09-14T08:10:48;11.73;;;6.30;;
34080;SDS011;20358;50.272;19.026;2022-09-14T08:13:54;8.53;;;7.17;;
34080;SDS011;20358;50.272;19.026;2022-09-14T08:17:04;10.00;;;6.63;;
34080;SDS011;20358;50.272;19.026;2022-09-14T08:20:15;6.73;;;5.70;;
34080;SDS011;20358;50.272;19.026;2022-09-14T08:23:22;6.97;;;6.10;;
34080;SDS011;20358;50.272;19.026;2022-09-14T08:26:28;7.07;;;5.70;;
34080;SDS011;20358;50.272;19.026;2022-09-14T08:29:37;6.83;;;6.13;;
34080;SDS011;20358;50.272;19.026;2022-09-14T08:32:43;10.40;;;7.20;;
34080;SDS011;20358;50.272;19.026;2022-09-14T08:35:53;10.35;;;5.70;;
34080;SDS011;20358;50.272;19.026;2022-09-14T08:39:00;6.43;;;5.60;;
34080;SDS011;20358;50.272;19.026;2022-09-14T08:42:09;6.70;;;5.30;;
34080;SDS011;20358;50.272;19.026;2022-09-14T08:45:19;6.95;;;5.25;;
34080;SDS011;20358;50.272;19.026;2022-09-14T08:48:28;5.80;;;5.20;;
34080;SDS011;20358;50.272;19.026;2022-09-14T08:51:42;6.10;;;5.47;;
34080;SDS011;20358;50.272;19.026;2022-09-14T08:54:51;7.07;;;5.30;;
34080;SDS011;20358;50.272;19.026;2022-09-14T08:58:00;7.60;;;5.55;;
34080;SDS011;20358;50.272;19.026;2022-09-14T09:01:11;6.85;;;4.95;;
34080;SDS011;20358;50.272;19.026;2022-09-14T09:04:27;6.82;;;5.50;;
34080;SDS011;20358;50.272;19.026;2022-09-14T09:07:45;7.40;;;4.90;;
34080;SDS011;20358;50.272;19.026;2022-09-14T09:10:57;6.85;;;5.32;;
34080;SDS011;20358;50.272;19.026;2022-09-14T09:14:16;9.82;;;6.30;;
34080;SDS011;20358;50.272;19.026;2022-09-14T09:17:27;14.25;;;6.30;;
34080;SDS011;20358;50.272;19.026;2022-09-14T09:20:42;7.47;;;5.65;;
34080;SDS011;20358;50.272;19.026;2022-09-14T09:23:56;6.35;;;5.72;;
34080;SDS011;20358;50.272;19.026;2022-09-14T09:27:13;7.72;;;6.25;;
34080;SDS011;20358;50.272;19.026;2022-09-14T09:30:20;5.75;;;5.30;;
34080;SDS011;20358;50.272;19.026;2022-09-14T09:33:27;6.50;;;5.53;;
34080;SDS011;20358;50.272;19.026;2022-09-14T09:36:56;7.22;;;5.93;;
34080;SDS011;20358;50.272;19.026;2022-09-14T09:40:11;7.35;;;5.60;;
34080;SDS011;20358;50.272;19.026;2022-09-14T09:43:20;7.60;;;5.47;;
34080;SDS011;20358;50.272;19.026;2022-09-14T09:46:48;10.45;;;5.28;;
34080;SDS011;20358;50.272;19.026;2022-09-14T09:49:56;9.18;;;5.30;;
34080;SDS011;20358;50.272;19.026;2022-09-14T09:53:07;4.88;;;4.38;;
34080;SDS011;20358;50.272;19.026;2022-09-14T09:56:24;6.35;;;5.30;;
34080;SDS011;20358;50.272;19.026;2022-09-14T09:59:34;6.03;;;4.90;;
34080;SDS011;20358;50.272;19.026;2022-09-14T10:02:42;7.13;;;5.28;;
34080;SDS011;20358;50.272;19.026;2022-09-14T10:05:49;5.60;;;5.10;;
34080;SDS011;20358;50.272;19.026;2022-09-14T10:09:11;5.57;;;4.82;;
34080;SDS011;20358;50.272;19.026;2022-09-14T10:12:22;5.70;;;4.70;;
34080;SDS011;20358;50.272;19.026;2022-09-14T10:15:29;7.78;;;5.18;;
34080;SDS011;20358;50.272;19.026;2022-09-14T10:18:41;5.78;;;4.70;;
34080;SDS011;20358;50.272;19.026;2022-09-14T10:25:28;6.95;;;4.88;;
34080;SDS011;20358;50.272;19.026;2022-09-14T10:28:37;6.47;;;5.07;;
34080;SDS011;20358;50.272;19.026;2022-09-14T10:31:46;5.70;;;4.68;;
34080;SDS011;20358;50.272;19.026;2022-09-14T10:34:54;5.50;;;4.93;;
34080;SDS011;20358;50.272;19.026;2022-09-14T10:38:05;7.70;;;5.45;;
34080;SDS011;20358;50.272;19.026;2022-09-14T10:41:23;5.40;;;4.90;;
34080;SDS011;20358;50.272;19.026;2022-09-14T10:44:48;5.82;;;5.32;;
34080;SDS011;20358;50.272;19.026;2022-09-14T10:48:18;5.57;;;5.05;;
34080;SDS011;20358;50.272;19.026;2022-09-14T10:51:36;5.68;;;5.20;;
34080;SDS011;20358;50.272;19.026;2022-09-14T10:54:59;6.90;;;4.65;;
34080;SDS011;20358;50.272;19.026;2022-09-14T10:58:22;5.82;;;5.25;;
34080;SDS011;20358;50.272;19.026;2022-09-14T11:01:41;4.97;;;4.47;;
34080;SDS011;20358;50.272;19.026;2022-09-14T11:05:11;7.88;;;4.88;;
34080;SDS011;20358;50.272;19.026;2022-09-14T11:08:21;6.35;;;4.70;;
34080;SDS011;20358;50.272;19.026;2022-09-14T11:11:39;5.70;;;5.13;;
34080;SDS011;20358;50.272;19.026;2022-09-14T11:14:59;5.90;;;4.78;;
34080;SDS011;20358;50.272;19.026;2022-09-14T11:18:22;5.53;;;5.00;;
34080;SDS011;20358;50.272;19.026;2022-09-14T11:21:40;7.03;;;4.88;;
34080;SDS011;20358;50.272;19.026;2022-09-14T11:24:55;5.25;;;4.72;;
34080;SDS011;20358;50.272;19.026;2022-09-14T11:28:07;5.90;;;5.22;;
34080;SDS011;20358;50.272;19.026;2022-09-14T11:31:20;7.82;;;5.45;;
34080;SDS011;20358;50.272;19.026;2022-09-14T11:34:33;5.63;;;5.00;;
34080;SDS011;20358;50.272;19.026;2022-09-14T11:37:44;5.70;;;5.05;;
34080;SDS011;20358;50.272;19.026;2022-09-14T11:40:56;6.00;;;5.40;;
34080;SDS011;20358;50.272;19.026;2022-09-14T11:44:11;5.97;;;5.47;;
34080;SDS011;20358;50.272;19.026;2022-09-14T11:47:21;6.75;;;5.65;;
34080;SDS011;20358;50.272;19.026;2022-09-14T11:50:32;6.40;;;5.43;;
34080;SDS011;20358;50.272;19.026;2022-09-14T11:53:41;6.17;;;5.57;;
34080;SDS011;20358;50.272;19.026;2022-09-14T11:56:50;6.07;;;5.37;;
34080;SDS011;20358;50.272;19.026;2022-09-14T12:00:03;7.68;;;5.72;;
34080;SDS011;20358;50.272;19.026;2022-09-14T12:03:16;5.90;;;5.40;;
34080;SDS011;20358;50.272;19.026;2022-09-14T12:10:03;7.00;;;6.33;;
34080;SDS011;20358;50.272;19.026;2022-09-14T12:13:21;7.33;;;6.67;;
34080;SDS011;20358;50.272;19.026;2022-09-14T12:16:28;8.27;;;7.43;;
34080;SDS011;20358;50.272;19.026;2022-09-14T12:19:35;8.73;;;6.97;;
34080;SDS011;20358;50.272;19.026;2022-09-14T12:22:45;7.60;;;6.87;;
34080;SDS011;20358;50.272;19.026;2022-09-14T12:25:57;7.60;;;6.90;;
34080;SDS011;20358;50.272;19.026;2022-09-14T12:29:25;7.80;;;7.00;;
34080;SDS011;20358;50.272;19.026;2022-09-14T12:32:39;7.27;;;6.63;;
34080;SDS011;20358;50.272;19.026;2022-09-14T12:35:48;6.90;;;6.20;;
34080;SDS011;20358;50.272;19.026;2022-09-14T12:39:18;7.83;;;7.03;;
34080;SDS011;20358;50.272;19.026;2022-09-14T12:42:30;6.97;;;5.50;;
34080;SDS011;20358;50.272;19.026;2022-09-14T12:45:46;5.80;;;5.20;;
34080;SDS011;20358;50.272;19.026;2022-09-14T12:48:55;6.63;;;5.87;;
34080;SDS011;20358;50.272;19.026;2022-09-14T12:52:12;7.03;;;5.77;;
34080;SDS011;20358;50.272;19.026;2022-09-14T12:55:51;8.60;;;5.97;;
34080;SDS011;20358;50.272;19.026;2022-09-14T12:59:04;5.83;;;5.33;;
34080;SDS011;20358;50.272;19.026;2022-09-14T13:02:21;5.13;;;4.63;;
34080;SDS011;20358;50.272;19.026;2022-09-14T13:05:50;5.63;;;5.13;;
34080;SDS011;20358;50.272;19.026;2022-09-14T13:08:57;5.40;;;5.00;;
34080;SDS011;20358;50.272;19.026;2022-09-14T13:12:13;5.73;;;5.23;;
34080;SDS011;20358;50.272;19.026;2022-09-14T13:15:27;5.30;;;4.80;;
34080;SDS011;20358;50.272;19.026;2022-09-14T13:18:37;6.37;;;5.77;;
34080;SDS011;20358;50.272;19.026;2022-09-14T13:21:45;6.40;;;5.13;;
34080;SDS011;20358;50.272;19.026;2022-09-14T13:24:52;7.10;;;5.67;;
34080;SDS011;20358;50.272;19.026;2022-09-14T13:28:02;5.93;;;5.07;;
34080;SDS011;20358;50.272;19.026;2022-09-14T13:31:11;5.30;;;4.60;;
34080;SDS011;20358;50.272;19.026;2022-09-14T13:34:20;5.57;;;5.00;;
34080;SDS011;20358;50.272;19.026;2022-09-14T13:37:29;6.47;;;5.53;;
34080;SDS011;20358;50.272;19.026;2022-09-14T13:40:36;6.23;;;5.20;;
34080;SDS011;20358;50.272;19.026;2022-09-14T13:43:45;5.90;;;5.40;;
34080;SDS011;20358;50.272;19.026;2022-09-14T13:46:53;5.17;;;4.77;;
34080;SDS011;20358;50.272;19.026;2022-09-14T13:50:04;5.80;;;4.77;;
34080;SDS011;20358;50.272;19.026;2022-09-14T13:56:44;5.57;;;5.07;;
34080;SDS011;20358;50.272;19.026;2022-09-14T14:00:13;5.50;;;5.00;;
34080;SDS011;20358;50.272;19.026;2022-09-14T14:03:31;5.60;;;5.10;;
34080;SDS011;20358;50.272;19.026;2022-09-14T14:06:41;4.27;;;3.87;;
34080;SDS011;20358;50.272;19.026;2022-09-14T14:09:49;5.30;;;4.80;;
34080;SDS011;20358;50.272;19.026;2022-09-14T14:12:57;6.93;;;5.37;;
34080;SDS011;20358;50.272;19.026;2022-09-14T14:16:20;5.73;;;5.17;;
34080;SDS011;20358;50.272;19.026;2022-09-14T14:19:29;5.27;;;4.77;;
34080;SDS011;20358;50.272;19.026;2022-09-14T14:22:35;6.60;;;5.67;;
34080;SDS011;20358;50.272;19.026;2022-09-14T14:25:42;6.57;;;5.43;;
34080;SDS011;20358;50.272;19.026;2022-09-14T14:28:50;6.50;;;5.80;;
34080;SDS011;20358;50.272;19.026;2022-09-14T14:31:59;5.97;;;5.37;;
34080;SDS011;20358;50.272;19.026;2022-09-14T14:35:11;6.17;;;5.50;;
34080;SDS011;20358;50.272;19.026;2022-09-14T14:38:20;5.53;;;5.03;;
34080;SDS011;20358;50.272;19.026;2022-09-14T14:41:27;6.30;;;5.30;;
34080;SDS011;20358;50.272;19.026;2022-09-14T14:44:34;6.03;;;5.47;;
34080;SDS011;20358;50.272;19.026;2022-09-14T14:47:43;6.47;;;5.60;;
34080;SDS011;20358;50.272;19.026;2022-09-14T14:50:50;5.80;;;5.30;;
34080;SDS011;20358;50.272;19.026;2022-09-14T14:53:57;8.47;;;5.43;;
34080;SDS011;20358;50.272;19.026;2022-09-14T14:57:05;6.77;;;6.17;;
34080;SDS011;20358;50.272;19.026;2022-09-14T15:00:12;6.90;;;6.10;;
34080;SDS011;20358;50.272;19.026;2022-09-14T15:03:23;6.83;;;6.20;;
34080;SDS011;20358;50.272;19.026;2022-09-14T15:06:29;5.93;;;5.43;;
34080;SDS011;20358;50.272;19.026;2022-09-14T15:09:36;6.30;;;5.70;;
34080;SDS011;20358;50.272;19.026;2022-09-14T15:12:42;6.33;;;5.50;;
34080;SDS011;20358;50.272;19.026;2022-09-14T15:15:49;6.57;;;5.40;;
34080;SDS011;20358;50.272;19.026;2022-09-14T15:18:58;5.70;;;5.20;;
34080;SDS011;20358;50.272;19.026;2022-09-14T15:22:05;5.87;;;5.37;;
34080;SDS011;20358;50.272;19.026;2022-09-14T15:25:14;6.30;;;5.40;;
34080;SDS011;20358;50.272;19.026;2022-09-14T15:28:21;6.60;;;6.00;;
34080;SDS011;20358;50.272;19.026;2022-09-14T15:31:27;6.23;;;5.63;;
34080;SDS011;20358;50.272;19.026;2022-09-14T15:34:37;6.20;;;5.60;;
34080;SDS011;20358;50.272;19.026;2022-09-14T15:37:45;6.77;;;6.17;;
34080;SDS011;20358;50.272;19.026;2022-09-14T15:40:53;6.60;;;5.97;;
34080;SDS011;20358;50.272;19.026;2022-09-14T15:43:59;6.73;;;6.23;;
34080;SDS011;20358;50.272;19.026;2022-09-14T15:47:06;6.87;;;6.27;;
34080;SDS011;20358;50.272;19.026;2022-09-14T15:50:15;6.47;;;5.87;;
34080;SDS011;20358;50.272;19.026;2022-09-14T15:53:22;7.23;;;6.60;;
34080;SDS011;20358;50.272;19.026;2022-09-14T15:56:28;8.00;;;7.30;;
34080;SDS011;20358;50.272;19.026;2022-09-14T15:59:36;7.97;;;7.17;;
34080;SDS011;20358;50.272;19.026;2022-09-14T16:02:42;8.00;;;7.40;;
34080;SDS011;20358;50.272;19.026;2022-09-14T16:05:51;7.90;;;7.20;;
34080;SDS011;20358;50.272;19.026;2022-09-14T16:08:58;8.87;;;8.07;;
34080;SDS011;20358;50.272;19.026;2022-09-14T16:12:05;8.70;;;7.93;;
34080;SDS011;20358;50.272;19.026;2022-09-14T16:15:12;8.37;;;7.60;;
34080;SDS011;20358;50.272;19.026;2022-09-14T16:18:19;8.77;;;8.07;;
34080;SDS011;20358;50.272;19.026;2022-09-14T16:21:27;9.60;;;8.80;;
34080;SDS011;20358;50.272;19.026;2022-09-14T16:24:35;10.73;;;8.63;;
34080;SDS011;20358;50.272;19.026;2022-09-14T16:27:41;10.40;;;9.40;;
34080;SDS011;20358;50.272;19.026;2022-09-14T16:30:48;9.80;;;8.90;;
34080;SDS011;20358;50.272;19.026;2022-09-14T16:33:54;9.50;;;8.60;;
34080;SDS011;20358;50.272;19.026;2022-09-14T16:37:07;10.43;;;9.33;;
34080;SDS011;20358;50.272;19.026;2022-09-14T16:40:13;9.20;;;8.33;;
34080;SDS011;20358;50.272;19.026;2022-09-14T16:43:21;8.43;;;7.63;;
34080;SDS011;20358;50.272;19.026;2022-09-14T16:46:27;8.27;;;7.43;;
34080;SDS011;20358;50.272;19.026;2022-09-14T16:49:35;6.40;;;5.90;;
34080;SDS011;20358;50.272;19.026;2022-09-14T16:52:44;6.93;;;6.23;;
34080;SDS011;20358;50.272;19.026;2022-09-14T16:55:51;6.00;;;5.37;;
34080;SDS011;20358;50.272;19.026;2022-09-14T16:59:05;5.60;;;5.10;;
34080;SDS011;20358;50.272;19.026;2022-09-14T17:02:12;5.13;;;4.73;;
34080;SDS011;20358;50.272;19.026;2022-09-14T17:05:18;5.90;;;5.40;;
34080;SDS011;20358;50.272;19.026;2022-09-14T17:08:28;6.27;;;5.77;;
34080;SDS011;20358;50.272;19.026;2022-09-14T17:11:36;7.10;;;6.47;;
34080;SDS011;20358;50.272;19.026;2022-09-14T17:14:44;6.20;;;5.70;;
34080;SDS011;20358;50.272;19.026;2022-09-14T17:17:50;6.87;;;6.27;;
34080;SDS011;20358;50.272;19.026;2022-09-14T17:20:58;7.47;;;6.87;;
34080;SDS011;20358;50.272;19.026;2022-09-14T17:24:11;6.67;;;6.07;;
34080;SDS011;20358;50.272;19.026;2022-09-14T17:27:18;6.90;;;6.40;;
34080;SDS011;20358;50.272;19.026;2022-09-14T17:30:24;8.03;;;7.43;;
34080;SDS011;20358;50.272;19.026;2022-09-14T17:33:31;7.27;;;6.63;;
34080;SDS011;20358;50.272;19.026;2022-09-14T17:36:38;7.40;;;6.73;;
34080;SDS011;20358;50.272;19.026;2022-09-14T17:39:48;7.07;;;6.53;;
34080;SDS011;20358;50.272;19.026;2022-09-14T17:42:54;7.90;;;7.30;;
34080;SDS011;20358;50.272;19.026;2022-09-14T17:46:04;7.53;;;6.93;;
34080;SDS011;20358;50.272;19.026;2022-09-14T17:49:11;7.50;;;6.70;;
34080;SDS011;20358;50.272;19.026;2022-09-14T17:52:18;7.60;;;6.87;;
34080;SDS011;20358;50.272;19.026;2022-09-14T17:55:27;7.73;;;6.93;;
34080;SDS011;20358;50.272;19.026;2022-09-14T17:58:34;6.83;;;6.23;;
34080;SDS011;20358;50.272;19.026;2022-09-14T18:01:40;7.80;;;7.13;;
34080;SDS011;20358;50.272;19.026;2022-09-14T18:04:48;7.70;;;7.00;;
34080;SDS011;20358;50.272;19.026;2022-09-14T18:07:54;8.03;;;7.37;;
34080;SDS011;20358;50.272;19.026;2022-09-14T18:11:06;6.97;;;6.37;;
34080;SDS011;20358;50.272;19.026;2022-09-14T18:14:14;6.63;;;6.03;;
34080;SDS011;20358;50.272;19.026;2022-09-14T18:17:21;7.37;;;6.10;;
34080;SDS011;20358;50.272;19.026;2022-09-14T18:20:27;7.00;;;6.40;;
34080;SDS011;20358;50.272;19.026;2022-09-14T18:23:34;8.10;;;6.27;;
34080;SDS011;20358;50.272;19.026;2022-09-14T18:26:44;7.57;;;6.80;;
34080;SDS011;20358;50.272;19.026;2022-09-14T18:29:50;8.03;;;7.23;;
34080;SDS011;20358;50.272;19.026;2022-09-14T18:32:57;7.43;;;6.63;;
34080;SDS011;20358;50.272;19.026;2022-09-14T18:36:06;8.00;;;6.80;;
34080;SDS011;20358;50.272;19.026;2022-09-14T18:39:13;7.97;;;7.03;;
34080;SDS011;20358;50.272;19.026;2022-09-14T18:42:24;7.33;;;6.70;;
34080;SDS011;20358;50.272;19.026;2022-09-14T18:45:29;8.30;;;7.40;;
34080;SDS011;20358;50.272;19.026;2022-09-14T18:48:39;8.27;;;7.57;;
34080;SDS011;20358;50.272;19.026;2022-09-14T18:51:46;7.57;;;6.87;;
34080;SDS011;20358;50.272;19.026;2022-09-14T18:54:53;8.20;;;7.40;;
34080;SDS011;20358;50.272;19.026;2022-09-14T18:58:02;7.87;;;7.17;;
34080;SDS011;20358;50.272;19.026;2022-09-14T19:01:09;8.33;;;7.53;;
34080;SDS011;20358;50.272;19.026;2022-09-14T19:04:16;9.13;;;7.40;;